createdAt,value
2018-01-01T00:00:22.385Z,79.35
2018-01-01T00:01:02.944Z,79.44
2018-01-01T00:01:43.513Z,79.63
2018-01-01T00:02:24.082Z,79.53
2018-01-01T00:03:04.650Z,79.35
2018-01-01T00:03:45.224Z,79.25
2018-01-01T00:04:25.781Z,79.35
2018-01-01T00:05:06.345Z,79.91
2018-01-01T00:05:46.922Z,79.72
2018-01-01T00:06:27.489Z,79.35
2018-01-01T00:07:08.125Z,79.53
2018-01-01T00:07:48.622Z,79.35
2018-01-01T00:08:29.177Z,79.06
2018-01-01T00:09:09.740Z,79.25
2018-01-01T00:09:50.309Z,79.63
2018-01-01T00:10:30.866Z,79.53
2018-01-01T00:11:11.431Z,79.15
2018-01-01T00:11:51.996Z,79.15
2018-01-01T00:12:32.556Z,79.35
2018-01-01T00:13:13.138Z,79.35
2018-01-01T00:13:53.712Z,79.06
2018-01-01T00:14:34.284Z,79.35
2018-01-01T00:15:14.848Z,79.44
2018-01-01T00:15:55.408Z,79.44
2018-01-01T00:16:35.969Z,78.77
2018-01-01T00:17:16.558Z,79.15
2018-01-01T00:17:57.127Z,79.15
2018-01-01T00:18:37.689Z,78.77
2018-01-01T00:19:18.265Z,79.15
2018-01-01T00:19:58.840Z,79.15
2018-01-01T00:20:39.406Z,79.06
2018-01-01T00:21:19.970Z,79.15
2018-01-01T00:22:00.534Z,78.58
2018-01-01T00:22:41.104Z,79.25
2018-01-01T00:23:21.674Z,79.25
2018-01-01T00:24:02.233Z,79.44
2018-01-01T00:24:42.815Z,79.44
2018-01-01T00:25:23.371Z,79.35
2018-01-01T00:26:03.944Z,79.25
2018-01-01T00:26:44.501Z,79.06
2018-01-01T00:27:25.061Z,78.77
2018-01-01T00:28:05.629Z,78.96
2018-01-01T00:28:46.212Z,79.44
2018-01-01T00:29:26.780Z,79.15
2018-01-01T00:30:07.346Z,79.15
2018-01-01T00:30:47.916Z,79.06
2018-01-01T00:31:28.490Z,79.35
2018-01-01T00:32:09.055Z,78.86
2018-01-01T00:32:49.616Z,78.49
2018-01-01T00:33:30.212Z,78.67
2018-01-01T00:34:10.801Z,78.67
2018-01-01T00:34:51.359Z,78.86
2018-01-01T00:35:31.935Z,78.77
2018-01-01T00:36:12.499Z,78.77
2018-01-01T00:36:53.057Z,78.2
2018-01-01T00:37:33.625Z,78.1
2018-01-01T00:38:14.210Z,78.96
2018-01-01T00:38:54.817Z,78.77
2018-01-01T00:39:35.382Z,78.67
2018-01-01T00:40:15.956Z,78.67
2018-01-01T00:40:56.515Z,78.58
2018-01-01T00:41:37.090Z,78.2
2018-01-01T00:42:17.668Z,78.1
2018-01-01T00:42:58.273Z,78.3
2018-01-01T00:43:38.835Z,78.1
2018-01-01T00:44:19.398Z,77.82
2018-01-01T00:44:59.960Z,78.39
2018-01-01T00:45:40.518Z,78.3
2018-01-01T00:46:21.087Z,78.01
2018-01-01T00:47:01.633Z,77.91
2018-01-01T00:47:42.189Z,78.2
2018-01-01T00:48:22.754Z,77.91
2018-01-01T00:49:03.313Z,78.3
2018-01-01T00:49:43.881Z,78.39
2018-01-01T00:50:24.441Z,78.39
2018-01-01T00:51:05.001Z,78.01
2018-01-01T00:51:45.571Z,78.2
2018-01-01T00:52:26.146Z,78.39
2018-01-01T00:53:06.697Z,78.39
2018-01-01T00:53:47.264Z,78.01
2018-01-01T00:54:27.828Z,78.01
2018-01-01T00:55:08.456Z,78.2
2018-01-01T00:55:49.498Z,78.3
2018-01-01T00:56:30.224Z,78.01
2018-01-01T00:57:10.794Z,78.2
2018-01-01T00:57:51.537Z,77.91
2018-01-01T00:58:32.600Z,78.39
2018-01-01T00:59:13.281Z,78.1
2018-01-01T00:59:54.953Z,78.1
2018-01-01T01:00:35.953Z,78.2
2018-01-01T01:01:17.180Z,77.91
2018-01-01T01:02:00.192Z,77.82
2018-01-01T01:02:40.745Z,78.1
2018-01-01T01:03:21.846Z,78.1
2018-01-01T01:04:02.589Z,78.2
2018-01-01T01:04:43.314Z,78.3
2018-01-01T01:05:24.357Z,78.3
2018-01-01T01:06:05.378Z,77.82
2018-01-01T01:06:45.959Z,78.01
2018-01-01T01:07:26.528Z,77.91
2018-01-01T01:08:07.102Z,78.3
2018-01-01T01:08:47.669Z,78.1
2018-01-01T01:09:28.276Z,78.01
2018-01-01T01:10:08.853Z,78.01
2018-01-01T01:10:49.442Z,78.1
2018-01-01T01:11:30.000Z,77.91
2018-01-01T01:12:10.553Z,77.91
2018-01-01T01:12:51.119Z,78.2
2018-01-01T01:13:31.678Z,78.2
2018-01-01T01:14:12.239Z,78.2
2018-01-01T01:14:52.833Z,78.39
2018-01-01T01:15:33.381Z,78.39
2018-01-01T01:16:13.949Z,78.3
2018-01-01T01:16:54.506Z,78.73
2018-01-01T01:17:35.079Z,78.77
2018-01-01T01:18:15.645Z,78.77
2018-01-01T01:18:56.224Z,78.92
2018-01-01T01:19:36.805Z,78.92
2018-01-01T01:20:17.370Z,78.83
2018-01-01T01:20:57.944Z,78.58
2018-01-01T01:21:38.512Z,78.83
2018-01-01T01:22:19.079Z,78.83
2018-01-01T01:22:59.651Z,78.64
2018-01-01T01:23:40.209Z,78.83
2018-01-01T01:24:20.779Z,78.73
2018-01-01T01:25:01.354Z,78.83
2018-01-01T01:25:41.905Z,78.73
2018-01-01T01:26:22.483Z,78.54
2018-01-01T01:27:03.039Z,78.58
2018-01-01T01:27:43.597Z,78.64
2018-01-01T01:28:24.169Z,78.64
2018-01-01T01:29:04.743Z,78.86
2018-01-01T01:29:45.324Z,78.64
2018-01-01T01:30:25.912Z,78.67
2018-01-01T01:31:06.478Z,78.64
2018-01-01T01:31:47.033Z,78.73
2018-01-01T01:32:27.595Z,79.11
2018-01-01T01:33:08.173Z,79.21
2018-01-01T01:33:48.740Z,79.3
2018-01-01T01:34:29.320Z,79.3
2018-01-01T01:35:09.894Z,79.3
2018-01-01T01:35:50.454Z,79.3
2018-01-01T01:36:31.014Z,79.11
2018-01-01T01:37:11.581Z,79.4
2018-01-01T01:37:52.145Z,79.21
2018-01-01T01:38:32.719Z,79.02
2018-01-01T01:39:13.290Z,79.3
2018-01-01T01:39:53.851Z,79.21
2018-01-01T01:40:34.420Z,79.02
2018-01-01T01:41:15.002Z,79.21
2018-01-01T01:41:55.555Z,78.92
2018-01-01T01:42:36.112Z,79.11
2018-01-01T01:43:16.672Z,78.92
2018-01-01T01:43:57.228Z,79.11
2018-01-01T01:44:37.823Z,79.3
2018-01-01T01:45:18.403Z,79.3
2018-01-01T01:45:58.982Z,79.49
2018-01-01T01:46:39.534Z,79.11
2018-01-01T01:47:20.101Z,79.3
2018-01-01T01:48:00.669Z,79.4
2018-01-01T01:48:41.235Z,79.21
2018-01-01T01:49:21.815Z,79.11
2018-01-01T01:50:02.377Z,79.11
2018-01-01T01:50:42.952Z,78.92
2018-01-01T01:51:23.522Z,79.11
2018-01-01T01:52:04.079Z,79.3
2018-01-01T01:52:44.631Z,78.83
2018-01-01T01:53:25.208Z,79.4
2018-01-01T01:54:05.771Z,79.3
2018-01-01T01:54:46.336Z,79.11
2018-01-01T01:55:26.897Z,79.21
2018-01-01T01:56:07.468Z,79.4
2018-01-01T01:56:48.036Z,79.02
2018-01-01T01:57:28.626Z,79.02
2018-01-01T01:58:09.197Z,79.02
2018-01-01T01:58:49.751Z,78.92
2018-01-01T01:59:30.318Z,79.3
2018-01-01T02:00:10.891Z,79.02
2018-01-01T02:00:51.446Z,79.11
2018-01-01T02:01:31.999Z,79.11
2018-01-01T02:02:12.579Z,79.21
2018-01-01T02:02:53.150Z,79.4
2018-01-01T02:03:33.700Z,79.02
2018-01-01T02:04:14.258Z,78.83
2018-01-01T02:04:54.843Z,78.64
2018-01-01T02:05:35.411Z,78.54
2018-01-01T02:06:15.975Z,79.02
2018-01-01T02:06:56.565Z,79.3
2018-01-01T02:07:37.174Z,78.83
2018-01-01T02:08:17.728Z,79.02
2018-01-01T02:08:58.296Z,79.3
2018-01-01T02:09:38.864Z,78.54
2018-01-01T02:10:19.433Z,78.54
2018-01-01T02:10:59.994Z,78.83
2018-01-01T02:11:40.561Z,78.73
2018-01-01T02:12:21.127Z,78.06
2018-01-01T02:13:01.682Z,78.92
2018-01-01T02:13:42.257Z,79.02
2018-01-01T02:14:22.817Z,78.35
2018-01-01T02:15:03.388Z,78.35
2018-01-01T02:15:43.988Z,78.16
2018-01-01T02:16:24.582Z,78.25
2018-01-01T02:17:05.156Z,78.06
2018-01-01T02:17:45.724Z,78.06
2018-01-01T02:18:26.315Z,78.16
2018-01-01T02:19:06.893Z,78.06
2018-01-01T02:19:47.468Z,78.06
2018-01-01T02:20:28.022Z,78.06
2018-01-01T02:21:08.592Z,77.97
2018-01-01T02:21:49.161Z,77.97
2018-01-01T02:22:29.732Z,77.97
2018-01-01T02:23:10.286Z,78.16
2018-01-01T02:23:50.849Z,78.16
2018-01-01T02:24:31.404Z,78.25
2018-01-01T02:25:12.006Z,78.06
2018-01-01T02:25:52.585Z,77.97
2018-01-01T02:26:33.151Z,77.97
2018-01-01T02:27:13.719Z,77.78
2018-01-01T02:27:54.286Z,78.06
2018-01-01T02:28:34.866Z,78.06
2018-01-01T02:29:15.424Z,78.06
2018-01-01T02:29:55.989Z,78.25
2018-01-01T02:30:36.556Z,77.97
2018-01-01T02:31:17.135Z,77.87
2018-01-01T02:31:57.689Z,78.16
2018-01-01T02:32:38.249Z,78.06
2018-01-01T02:33:18.818Z,78.06
2018-01-01T02:33:59.391Z,77.97
2018-01-01T02:34:39.959Z,78.16
2018-01-01T02:35:20.520Z,77.78
2018-01-01T02:36:01.082Z,78.16
2018-01-01T02:36:41.640Z,77.97
2018-01-01T02:37:22.199Z,77.97
2018-01-01T02:38:02.780Z,77.78
2018-01-01T02:38:43.364Z,78.06
2018-01-01T02:39:23.925Z,77.97
2018-01-01T02:40:04.493Z,77.69
2018-01-01T02:40:45.059Z,77.49
2018-01-01T02:41:25.638Z,78.16
2018-01-01T02:42:06.212Z,77.69
2018-01-01T02:42:46.774Z,78.06
2018-01-01T02:43:27.332Z,77.97
2018-01-01T02:44:07.897Z,77.87
2018-01-01T02:44:48.460Z,77.4
2018-01-01T02:45:29.017Z,78.06
2018-01-01T02:46:09.580Z,77.78
2018-01-01T02:46:50.158Z,77.3
2018-01-01T02:47:30.728Z,77.49
2018-01-01T02:48:11.299Z,77.69
2018-01-01T02:48:51.857Z,77.49
2018-01-01T02:49:32.426Z,77.49
2018-01-01T02:50:12.992Z,77.4
2018-01-01T02:50:53.559Z,77.2
2018-01-01T02:51:34.126Z,77.2
2018-01-01T02:52:14.696Z,77.59
2018-01-01T02:52:55.258Z,77.3
2018-01-01T02:53:35.836Z,77.2
2018-01-01T02:54:16.399Z,77.3
2018-01-01T02:54:56.984Z,77.01
2018-01-01T02:55:37.533Z,76.82
2018-01-01T02:56:18.105Z,76.44
2018-01-01T02:56:58.663Z,76.25
2018-01-01T02:57:39.239Z,76.35
2018-01-01T02:58:19.794Z,76.64
2018-01-01T02:59:00.351Z,76.73
2018-01-01T02:59:40.908Z,76.82
2018-01-01T03:00:21.468Z,76.06
2018-01-01T03:01:02.024Z,76.06
2018-01-01T03:01:42.587Z,75.96
2018-01-01T03:02:23.150Z,75.87
2018-01-01T03:03:03.716Z,75.59
2018-01-01T03:03:44.277Z,75.68
2018-01-01T03:04:24.848Z,75.78
2018-01-01T03:05:05.416Z,75.2
2018-01-01T03:05:46.075Z,75.68
2018-01-01T03:06:26.630Z,75.49
2018-01-01T03:07:07.212Z,75.49
2018-01-01T03:07:47.787Z,75.59
2018-01-01T03:08:28.354Z,76.06
2018-01-01T03:09:08.929Z,75.3
2018-01-01T03:09:49.505Z,75.4
2018-01-01T03:10:30.070Z,75.2
2018-01-01T03:11:10.640Z,75.68
2018-01-01T03:11:51.198Z,75.2
2018-01-01T03:12:31.770Z,75.3
2018-01-01T03:13:12.667Z,75.11
2018-01-01T03:13:53.241Z,75.2
2018-01-01T03:14:33.811Z,75.3
2018-01-01T03:15:14.384Z,75.3
2018-01-01T03:15:54.945Z,75.2
2018-01-01T03:16:35.521Z,75.01
2018-01-01T03:17:16.070Z,75.4
2018-01-01T03:17:56.629Z,75.11
2018-01-01T03:18:37.204Z,75.4
2018-01-01T03:19:17.770Z,75.3
2018-01-01T03:19:58.341Z,75.3
2018-01-01T03:20:38.915Z,75.2
2018-01-01T03:21:19.477Z,75.4
2018-01-01T03:22:00.063Z,75.4
2018-01-01T03:22:40.632Z,75.3
2018-01-01T03:23:21.201Z,74.82
2018-01-01T03:24:01.767Z,74.92
2018-01-01T03:24:42.331Z,74.92
2018-01-01T03:25:22.889Z,74.82
2018-01-01T03:26:03.484Z,75.3
2018-01-01T03:26:44.057Z,75.4
2018-01-01T03:27:24.640Z,75.4
2018-01-01T03:28:05.217Z,75.4
2018-01-01T03:28:45.797Z,75.01
2018-01-01T03:29:26.402Z,75.2
2018-01-01T03:30:06.991Z,75.2
2018-01-01T03:30:47.556Z,75.2
2018-01-01T03:31:28.117Z,75.3
2018-01-01T03:32:08.682Z,75.01
2018-01-01T03:32:49.244Z,75.3
2018-01-01T03:33:29.816Z,75.3
2018-01-01T03:34:10.376Z,75.4
2018-01-01T03:34:50.959Z,75.49
2018-01-01T03:35:31.532Z,75.4
2018-01-01T03:36:12.100Z,75.3
2018-01-01T03:36:52.720Z,75.49
2018-01-01T03:37:33.411Z,75.96
2018-01-01T03:38:14.005Z,75.87
2018-01-01T03:38:54.557Z,75.59
2018-01-01T03:39:35.118Z,75.96
2018-01-01T03:40:15.899Z,75.96
2018-01-01T03:40:56.530Z,75.87
2018-01-01T03:41:37.098Z,76.06
2018-01-01T03:42:17.661Z,76.06
2018-01-01T03:42:58.235Z,76.06
2018-01-01T03:43:38.838Z,76.54
2018-01-01T03:44:19.455Z,76.82
2018-01-01T03:45:00.039Z,77.01
2018-01-01T03:45:40.591Z,76.92
2018-01-01T03:46:21.162Z,76.98
2018-01-01T03:47:01.773Z,77.59
2018-01-01T03:47:42.329Z,77.3
2018-01-01T03:48:22.933Z,77.49
2018-01-01T03:49:03.563Z,77.4
2018-01-01T03:49:44.137Z,77.4
2018-01-01T03:50:24.715Z,77.49
2018-01-01T03:51:05.273Z,77.49
2018-01-01T03:51:45.849Z,77.59
2018-01-01T03:52:26.414Z,77.78
2018-01-01T03:53:07.022Z,77.59
2018-01-01T03:53:47.578Z,77.64
2018-01-01T03:54:28.149Z,77.83
2018-01-01T03:55:08.735Z,77.93
2018-01-01T03:55:49.307Z,77.97
2018-01-01T03:56:29.885Z,78.31
2018-01-01T03:57:10.463Z,78.31
2018-01-01T03:57:51.061Z,78.22
2018-01-01T03:58:31.631Z,78.31
2018-01-01T03:59:12.211Z,78.78
2018-01-01T03:59:52.779Z,78.59
2018-01-01T04:00:33.390Z,78.69
2018-01-01T04:01:13.981Z,78.59
2018-01-01T04:01:54.536Z,78.41
2018-01-01T04:02:35.106Z,78.88
2018-01-01T04:03:15.674Z,78.59
2018-01-01T04:03:56.251Z,78.59
2018-01-01T04:04:36.828Z,78.69
2018-01-01T04:05:17.398Z,78.78
2018-01-01T04:05:57.965Z,78.41
2018-01-01T04:06:38.547Z,79.27
2018-01-01T04:07:19.152Z,79.17
2018-01-01T04:07:59.730Z,79.36
2018-01-01T04:08:40.346Z,79.27
2018-01-01T04:09:20.920Z,79.27
2018-01-01T04:10:01.472Z,79.36
2018-01-01T04:10:42.044Z,79.27
2018-01-01T04:11:22.606Z,79.17
2018-01-01T04:12:03.180Z,79.17
2018-01-01T04:12:43.747Z,79.46
2018-01-01T04:13:24.344Z,79.17
2018-01-01T04:14:04.896Z,78.98
2018-01-01T04:14:45.477Z,79.07
2018-01-01T04:15:26.047Z,79.07
2018-01-01T04:16:06.609Z,79.64
2018-01-01T04:16:47.184Z,78.98
2018-01-01T04:17:27.758Z,79.64
2018-01-01T04:18:08.340Z,79.64
2018-01-01T04:18:48.930Z,79.17
2018-01-01T04:19:29.494Z,78.88
2018-01-01T04:20:10.058Z,79.27
2018-01-01T04:20:50.686Z,78.98
2018-01-01T04:21:31.270Z,78.98
2018-01-01T04:22:11.834Z,79.17
2018-01-01T04:22:52.406Z,79.17
2018-01-01T04:23:32.983Z,79.17
2018-01-01T04:24:13.566Z,78.98
2018-01-01T04:24:54.153Z,79.27
2018-01-01T04:25:34.715Z,79.36
2018-01-01T04:26:15.295Z,79.17
2018-01-01T04:26:55.872Z,79.17
2018-01-01T04:27:36.457Z,79.17
2018-01-01T04:28:17.034Z,79.36
2018-01-01T04:28:57.598Z,79.27
2018-01-01T04:29:38.190Z,79.27
2018-01-01T04:30:18.767Z,79.46
2018-01-01T04:30:59.324Z,79.17
2018-01-01T04:31:39.921Z,79.07
2018-01-01T04:32:20.500Z,79.27
2018-01-01T04:33:01.073Z,79.27
2018-01-01T04:33:41.628Z,79.27
2018-01-01T04:34:22.227Z,79.36
2018-01-01T04:35:02.795Z,79.55
2018-01-01T04:35:43.365Z,79.27
2018-01-01T04:36:23.932Z,79.46
2018-01-01T04:37:04.571Z,79.36
2018-01-01T04:37:45.060Z,79.07
2018-01-01T04:38:25.633Z,79.64
2018-01-01T04:39:06.214Z,79.64
2018-01-01T04:39:46.786Z,79.27
2018-01-01T04:40:27.340Z,80.02
2018-01-01T04:41:07.916Z,79.55
2018-01-01T04:41:48.492Z,79.93
2018-01-01T04:42:29.071Z,79.46
2018-01-01T04:43:09.642Z,79.64
2018-01-01T04:43:50.241Z,80.02
2018-01-01T04:44:30.811Z,79.93
2018-01-01T04:45:11.378Z,79.74
2018-01-01T04:45:51.951Z,80.22
2018-01-01T04:46:32.514Z,80.5
2018-01-01T04:47:13.076Z,80.6
2018-01-01T04:47:53.661Z,80.5
2018-01-01T04:48:34.225Z,80.88
2018-01-01T04:49:14.823Z,81.36
2018-01-01T04:49:55.435Z,81.26
2018-01-01T04:50:35.994Z,81.07
2018-01-01T04:51:16.552Z,81.46
2018-01-01T04:51:57.140Z,81.46
2018-01-01T04:52:37.722Z,81.17
2018-01-01T04:53:18.289Z,81.84
2018-01-01T04:53:58.870Z,81.74
2018-01-01T04:54:39.451Z,82.12
2018-01-01T04:55:20.018Z,81.74
2018-01-01T04:56:00.574Z,81.74
2018-01-01T04:56:41.138Z,82.41
2018-01-01T04:57:21.707Z,82.12
2018-01-01T04:58:02.278Z,82.12
2018-01-01T04:58:42.853Z,82.41
2018-01-01T04:59:23.430Z,82.5
2018-01-01T05:00:03.993Z,82.6
2018-01-01T05:00:44.575Z,82.41
2018-01-01T05:01:25.144Z,82.12
2018-01-01T05:02:05.702Z,82.5
2018-01-01T05:02:46.300Z,82.46
2018-01-01T05:03:26.858Z,82.41
2018-01-01T05:04:07.420Z,82.03
2018-01-01T05:04:47.978Z,82.41
2018-01-01T05:05:28.554Z,82.5
2018-01-01T05:06:09.137Z,82.46
2018-01-01T05:06:49.700Z,82.46
2018-01-01T05:07:30.294Z,82.46
2018-01-01T05:08:10.865Z,82.37
2018-01-01T05:08:51.437Z,82.37
2018-01-01T05:09:32.031Z,82.08
2018-01-01T05:10:12.618Z,82.65
2018-01-01T05:10:53.194Z,82.79
2018-01-01T05:11:33.765Z,82.46
2018-01-01T05:12:14.335Z,82.65
2018-01-01T05:12:54.914Z,82.75
2018-01-01T05:13:35.492Z,82.75
2018-01-01T05:14:16.058Z,82.21
2018-01-01T05:14:56.619Z,82.37
2018-01-01T05:15:37.186Z,82.56
2018-01-01T05:16:17.762Z,82.56
2018-01-01T05:16:58.335Z,82.65
2018-01-01T05:17:38.878Z,82.56
2018-01-01T05:18:19.441Z,82.56
2018-01-01T05:19:00.027Z,82.75
2018-01-01T05:19:40.598Z,82.75
2018-01-01T05:20:21.175Z,82.93
2018-01-01T05:21:01.749Z,82.75
2018-01-01T05:21:42.308Z,82.46
2018-01-01T05:22:22.926Z,82.65
2018-01-01T05:23:03.445Z,82.56
2018-01-01T05:23:44.006Z,82.37
2018-01-01T05:24:24.586Z,82.56
2018-01-01T05:25:05.150Z,82.46
2018-01-01T05:25:45.706Z,82.75
2018-01-01T05:26:26.273Z,82.46
2018-01-01T05:27:06.834Z,82.46
2018-01-01T05:27:47.400Z,82.46
2018-01-01T05:28:27.967Z,82.46
2018-01-01T05:29:08.528Z,82.75
2018-01-01T05:30:01.638Z,82.56
2018-01-01T05:30:42.562Z,82.75
2018-01-01T05:31:23.141Z,82.46
2018-01-01T05:32:03.706Z,82.56
2018-01-01T05:32:44.290Z,82.27
2018-01-01T05:33:24.856Z,82.46
2018-01-01T05:34:05.412Z,82.46
2018-01-01T05:34:45.983Z,82.56
2018-01-01T05:35:26.530Z,82.75
2018-01-01T05:36:07.118Z,83.13
2018-01-01T05:36:47.672Z,82.27
2018-01-01T05:37:28.239Z,82.37
2018-01-01T05:38:08.800Z,82.84
2018-01-01T05:38:49.373Z,82.46
2018-01-01T05:39:29.958Z,83.22
2018-01-01T05:40:10.515Z,83.13
2018-01-01T05:40:51.080Z,83.03
2018-01-01T05:41:31.644Z,82.93
2018-01-01T05:42:12.217Z,82.84
2018-01-01T05:42:52.797Z,83.03
2018-01-01T05:43:33.369Z,82.84
2018-01-01T05:44:13.957Z,82.84
2018-01-01T05:44:54.518Z,83.03
2018-01-01T05:45:35.088Z,82.84
2018-01-01T05:46:15.648Z,82.46
2018-01-01T05:46:56.220Z,82.75
2018-01-01T05:47:36.793Z,82.84
2018-01-01T05:48:17.361Z,83.32
2018-01-01T05:48:57.927Z,83.13
2018-01-01T05:49:38.496Z,83.32
2018-01-01T05:50:19.074Z,83.03
2018-01-01T05:50:59.638Z,83.51
2018-01-01T05:51:40.194Z,83.7
2018-01-01T05:52:20.760Z,83.7
2018-01-01T05:53:01.320Z,83.7
2018-01-01T05:53:41.890Z,83.61
2018-01-01T05:54:22.442Z,83.51
2018-01-01T05:55:02.999Z,83.61
2018-01-01T05:55:43.566Z,83.61
2018-01-01T05:56:24.142Z,83.7
2018-01-01T05:57:04.716Z,83.51
2018-01-01T05:57:45.292Z,83.03
2018-01-01T05:58:25.852Z,83.51
2018-01-01T05:59:06.413Z,83.7
2018-01-01T05:59:46.980Z,83.89
2018-01-01T06:00:27.552Z,83.41
2018-01-01T06:01:08.109Z,83.41
2018-01-01T06:01:48.678Z,83.61
2018-01-01T06:02:29.240Z,83.51
2018-01-01T06:03:09.812Z,83.41
2018-01-01T06:03:50.370Z,83.41
2018-01-01T06:04:30.938Z,83.7
2018-01-01T06:05:11.507Z,82.56
2018-01-01T06:05:52.079Z,82.56
2018-01-01T06:06:32.634Z,83.22
2018-01-01T06:07:13.202Z,83.13
2018-01-01T06:07:53.771Z,83.22
2018-01-01T06:08:34.345Z,83.7
2018-01-01T06:09:14.930Z,83.61
2018-01-01T06:09:55.524Z,83.51
2018-01-01T06:10:36.087Z,83.41
2018-01-01T06:11:16.652Z,83.7
2018-01-01T06:11:57.220Z,83.32
2018-01-01T06:12:37.796Z,83.51
2018-01-01T06:13:18.396Z,83.22
2018-01-01T06:13:58.958Z,83.13
2018-01-01T06:14:39.518Z,83.22
2018-01-01T06:15:20.105Z,82.84
2018-01-01T06:16:00.690Z,82.65
2018-01-01T06:16:41.253Z,82.84
2018-01-01T06:17:21.845Z,82.65
2018-01-01T06:18:02.422Z,82.65
2018-01-01T06:18:42.978Z,82.93
2018-01-01T06:19:23.569Z,83.03
2018-01-01T06:20:04.154Z,82.56
2018-01-01T06:20:44.720Z,82.93
2018-01-01T06:21:25.274Z,82.65
2018-01-01T06:22:05.842Z,82.18
2018-01-01T06:22:46.398Z,81.79
2018-01-01T06:23:26.968Z,81.51
2018-01-01T06:24:07.527Z,80.75
2018-01-01T06:24:48.089Z,80.18
2018-01-01T06:25:28.649Z,79.89
2018-01-01T06:26:09.226Z,79.22
2018-01-01T06:26:49.791Z,79.03
2018-01-01T06:27:30.363Z,79.13
2018-01-01T06:28:10.921Z,78.17
2018-01-01T06:28:51.482Z,77.7
2018-01-01T06:29:32.043Z,77.42
2018-01-01T06:30:12.602Z,77.13
2018-01-01T06:30:53.154Z,76.84
2018-01-01T06:31:33.734Z,75.79
2018-01-01T06:32:14.304Z,74.75
2018-01-01T06:32:54.890Z,74.37
2018-01-01T06:33:35.458Z,74.37
2018-01-01T06:34:16.012Z,74.46
2018-01-01T06:34:56.582Z,73.89
2018-01-01T06:35:37.136Z,73.61
2018-01-01T06:36:17.698Z,73.61
2018-01-01T06:36:58.249Z,73.22
2018-01-01T06:37:38.856Z,72.94
2018-01-01T06:38:19.422Z,73.32
2018-01-01T06:38:59.988Z,73.7
2018-01-01T06:39:40.555Z,73.89
2018-01-01T06:40:21.114Z,73.51
2018-01-01T06:41:01.690Z,73.8
2018-01-01T06:41:42.263Z,73.99
2018-01-01T06:42:22.827Z,73.8
2018-01-01T06:43:03.413Z,73.8
2018-01-01T06:43:43.985Z,73.89
2018-01-01T06:44:24.574Z,73.7
2018-01-01T06:45:05.144Z,73.7
2018-01-01T06:45:45.703Z,73.89
2018-01-01T06:46:26.275Z,74.37
2018-01-01T06:47:06.854Z,74.18
2018-01-01T06:47:47.430Z,73.7
2018-01-01T06:48:27.993Z,73.22
2018-01-01T06:49:08.544Z,73.32
2018-01-01T06:49:49.093Z,73.22
2018-01-01T06:50:29.657Z,73.03
2018-01-01T06:51:10.245Z,72.27
2018-01-01T06:51:50.801Z,71.89
2018-01-01T06:52:31.381Z,71.13
2018-01-01T06:53:11.946Z,71.03
2018-01-01T06:53:52.518Z,70.65
2018-01-01T06:54:33.078Z,70.18
2018-01-01T06:55:13.642Z,69.99
2018-01-01T06:55:54.205Z,69.89
2018-01-01T06:56:34.766Z,70.08
2018-01-01T06:57:15.338Z,69.7
2018-01-01T06:57:55.905Z,69.79
2018-01-01T06:58:36.459Z,69.13
2018-01-01T06:59:17.023Z,69.04
2018-01-01T06:59:57.591Z,69.51
2018-01-01T07:00:38.157Z,69.42
2018-01-01T07:01:18.718Z,69.32
2018-01-01T07:01:59.292Z,69.32
2018-01-01T07:02:39.857Z,68.94
2018-01-01T07:03:20.416Z,68.84
2018-01-01T07:04:00.967Z,68.37
2018-01-01T07:04:41.519Z,68.37
2018-01-01T07:05:22.082Z,68.27
2018-01-01T07:06:02.685Z,68.94
2018-01-01T07:06:43.269Z,68.75
2018-01-01T07:07:23.835Z,68.65
2018-01-01T07:08:04.394Z,68.84
2018-01-01T07:08:44.967Z,68.65
2018-01-01T07:09:25.528Z,68.84
2018-01-01T07:10:06.092Z,68.62
2018-01-01T07:10:46.671Z,68.65
2018-01-01T07:11:27.246Z,68.84
2018-01-01T07:12:07.851Z,68.75
2018-01-01T07:12:48.424Z,68.75
2018-01-01T07:13:28.996Z,68.75
2018-01-01T07:14:09.546Z,68.81
2018-01-01T07:14:50.113Z,68.62
2018-01-01T07:15:30.674Z,68.75
2018-01-01T07:16:11.238Z,68.75
2018-01-01T07:16:51.827Z,68.94
2018-01-01T07:17:32.395Z,68.75
2018-01-01T07:18:12.946Z,69.04
2018-01-01T07:18:53.510Z,68.75
2018-01-01T07:19:34.077Z,68.18
2018-01-01T07:20:14.643Z,68.18
2018-01-01T07:20:55.197Z,68.46
2018-01-01T07:21:35.832Z,68.56
2018-01-01T07:22:16.358Z,68.52
2018-01-01T07:22:57.751Z,68.18
2018-01-01T07:23:38.333Z,67.7
2018-01-01T07:24:18.907Z,67.67
2018-01-01T07:24:59.471Z,67.86
2018-01-01T07:25:40.033Z,67.86
2018-01-01T07:26:20.597Z,68.05
2018-01-01T07:27:01.168Z,68.08
2018-01-01T07:27:41.754Z,68.52
2018-01-01T07:28:22.309Z,68.62
2018-01-01T07:29:02.890Z,68.9
2018-01-01T07:29:43.448Z,68.94
2018-01-01T07:30:24.020Z,68.9
2018-01-01T07:31:04.590Z,69.51
2018-01-01T07:31:45.152Z,69.79
2018-01-01T07:32:25.727Z,69.19
2018-01-01T07:33:06.282Z,69.6
2018-01-01T07:33:46.842Z,70.18
2018-01-01T07:34:27.408Z,70.05
2018-01-01T07:35:07.976Z,70.62
2018-01-01T07:35:48.527Z,70.84
2018-01-01T07:36:29.087Z,70.62
2018-01-01T07:37:09.657Z,70.9
2018-01-01T07:37:50.217Z,71.22
2018-01-01T07:38:30.770Z,71.57
2018-01-01T07:39:11.334Z,71.76
2018-01-01T07:39:51.888Z,72.14
2018-01-01T07:40:32.465Z,72.14
2018-01-01T07:41:13.022Z,72.33
2018-01-01T07:41:53.579Z,72.14
2018-01-01T07:42:34.142Z,72.71
2018-01-01T07:43:14.704Z,73.1
2018-01-01T07:43:55.268Z,73.28
2018-01-01T07:44:35.847Z,73.47
2018-01-01T07:45:16.396Z,73.38
2018-01-01T07:45:56.964Z,73.1
2018-01-01T07:46:37.525Z,73.85
2018-01-01T07:47:18.097Z,73.85
2018-01-01T07:47:58.667Z,73.76
2018-01-01T07:48:39.221Z,73.76
2018-01-01T07:49:19.787Z,73.76
2018-01-01T07:50:00.347Z,73.57
2018-01-01T07:50:40.901Z,73.76
2018-01-01T07:51:21.464Z,73.85
2018-01-01T07:52:02.030Z,74.14
2018-01-01T07:52:42.590Z,73.95
2018-01-01T07:53:23.154Z,74.04
2018-01-01T07:54:03.716Z,74.14
2018-01-01T07:54:44.274Z,74.24
2018-01-01T07:55:24.837Z,74.14
2018-01-01T07:56:05.413Z,74.14
2018-01-01T07:56:45.976Z,74.04
2018-01-01T07:57:26.530Z,73.95
2018-01-01T07:58:07.092Z,73.76
2018-01-01T07:58:47.667Z,73.47
2018-01-01T07:59:28.237Z,73.76
2018-01-01T08:00:08.806Z,73.76
2018-01-01T08:00:49.384Z,73.95
2018-01-01T08:01:29.985Z,73.95
2018-01-01T08:02:10.585Z,73.95
2018-01-01T08:02:51.138Z,73.76
2018-01-01T08:03:31.707Z,74.24
2018-01-01T08:04:12.268Z,74.43
2018-01-01T08:04:52.833Z,74.24
2018-01-01T08:05:33.424Z,74.43
2018-01-01T08:06:14.038Z,74.43
2018-01-01T08:06:54.600Z,74.24
2018-01-01T08:07:35.190Z,74.24
2018-01-01T08:08:15.792Z,74.62
2018-01-01T08:08:56.360Z,74.62
2018-01-01T08:09:36.930Z,73.85
2018-01-01T08:10:17.507Z,74.14
2018-01-01T08:10:58.066Z,73.85
2018-01-01T08:11:38.689Z,74.33
2018-01-01T08:12:19.251Z,74.33
2018-01-01T08:12:59.807Z,73.95
2018-01-01T08:13:40.373Z,73.85
2018-01-01T08:14:20.933Z,73.76
2018-01-01T08:15:01.510Z,73.85
2018-01-01T08:15:42.061Z,74.04
2018-01-01T08:16:22.627Z,73.76
2018-01-01T08:17:03.181Z,73.66
2018-01-01T08:17:43.751Z,73.66
2018-01-01T08:18:24.336Z,73.95
2018-01-01T08:19:04.923Z,73.66
2018-01-01T08:19:45.490Z,73.85
2018-01-01T08:20:26.058Z,74.04
2018-01-01T08:21:06.616Z,73.95
2018-01-01T08:21:47.181Z,74.04
2018-01-01T08:22:27.747Z,74.04
2018-01-01T08:23:08.314Z,73.76
2018-01-01T08:23:48.892Z,73.85
2018-01-01T08:24:29.461Z,74.04
2018-01-01T08:25:10.023Z,73.95
2018-01-01T08:25:50.579Z,74.14
2018-01-01T08:26:31.146Z,73.95
2018-01-01T08:27:11.718Z,74.52
2018-01-01T08:27:52.278Z,74.52
2018-01-01T08:28:32.849Z,74.52
2018-01-01T08:29:13.419Z,74.62
2018-01-01T08:29:54.032Z,74.33
2018-01-01T08:30:34.610Z,74.43
2018-01-01T08:31:15.205Z,74.43
2018-01-01T08:31:55.785Z,74.24
2018-01-01T08:32:36.346Z,74.71
2018-01-01T08:33:16.925Z,74.71
2018-01-01T08:33:57.474Z,74.8
2018-01-01T08:34:38.030Z,74.71
2018-01-01T08:35:18.598Z,74.9
2018-01-01T08:35:59.170Z,74.71
2018-01-01T08:36:39.735Z,74.71
2018-01-01T08:37:20.296Z,74.71
2018-01-01T08:38:00.857Z,75.09
2018-01-01T08:38:41.419Z,75.19
2018-01-01T08:39:21.972Z,75.09
2018-01-01T08:40:02.538Z,74.99
2018-01-01T08:40:43.144Z,74.71
2018-01-01T08:41:23.718Z,74.43
2018-01-01T08:42:04.286Z,74.62
2018-01-01T08:42:44.853Z,74.71
2018-01-01T08:43:25.436Z,74.8
2018-01-01T08:44:06.013Z,74.8
2018-01-01T08:44:46.562Z,74.71
2018-01-01T08:45:27.137Z,74.62